sensor_id;sensor_type;location;lat;lon;timestamp;P1;durP1;ratioP1;P2;durP2;ratioP2
37407;SDS011;24866;50.248;8.252;2024-03-08T00:02:16;19.60;;;11.63;;
37407;SDS011;24866;50.248;8.252;2024-03-08T00:04:47;20.90;;;12.05;;
37407;SDS011;24866;50.248;8.252;2024-03-08T00:07:19;24.42;;;13.10;;
37407;SDS011;24866;50.248;8.252;2024-03-08T00:09:49;22.48;;;12.15;;
37407;SDS011;24866;50.248;8.252;2024-03-08T00:12:19;20.33;;;13.00;;
37407;SDS011;24866;50.248;8.252;2024-03-08T00:14:49;24.10;;;12.75;;
37407;SDS011;24866;50.248;8.252;2024-03-08T00:17:19;20.15;;;12.25;;
37407;SDS011;24866;50.248;8.252;2024-03-08T00:19:50;20.20;;;12.73;;
37407;SDS011;24866;50.248;8.252;2024-03-08T00:22:22;22.10;;;13.07;;
37407;SDS011;24866;50.248;8.252;2024-03-08T00:24:52;20.85;;;11.70;;
37407;SDS011;24866;50.248;8.252;2024-03-08T00:27:22;21.63;;;12.60;;
37407;SDS011;24866;50.248;8.252;2024-03-08T00:29:52;18.92;;;12.52;;
37407;SDS011;24866;50.248;8.252;2024-03-08T00:32:22;19.65;;;12.38;;
37407;SDS011;24866;50.248;8.252;2024-03-08T00:34:53;19.73;;;12.18;;
37407;SDS011;24866;50.248;8.252;2024-03-08T00:37:24;21.48;;;13.27;;
37407;SDS011;24866;50.248;8.252;2024-03-08T00:39:54;21.10;;;12.70;;
37407;SDS011;24866;50.248;8.252;2024-03-08T00:42:25;22.52;;;12.70;;
37407;SDS011;24866;50.248;8.252;2024-03-08T00:44:55;23.95;;;12.55;;
37407;SDS011;24866;50.248;8.252;2024-03-08T00:47:26;21.90;;;11.90;;
37407;SDS011;24866;50.248;8.252;2024-03-08T00:49:56;24.83;;;12.60;;
37407;SDS011;24866;50.248;8.252;2024-03-08T00:52:27;23.85;;;12.60;;
37407;SDS011;24866;50.248;8.252;2024-03-08T00:54:57;22.45;;;13.10;;
37407;SDS011;24866;50.248;8.252;2024-03-08T00:57:27;21.00;;;11.68;;
37407;SDS011;24866;50.248;8.252;2024-03-08T00:59:58;19.55;;;11.25;;
37407;SDS011;24866;50.248;8.252;2024-03-08T01:02:28;19.95;;;11.93;;
37407;SDS011;24866;50.248;8.252;2024-03-08T01:04:58;21.35;;;12.30;;
37407;SDS011;24866;50.248;8.252;2024-03-08T01:07:29;21.67;;;12.30;;
37407;SDS011;24866;50.248;8.252;2024-03-08T01:10:00;25.35;;;13.27;;
37407;SDS011;24866;50.248;8.252;2024-03-08T01:12:30;22.08;;;12.55;;
37407;SDS011;24866;50.248;8.252;2024-03-08T01:15:00;21.17;;;12.57;;
37407;SDS011;24866;50.248;8.252;2024-03-08T01:17:30;20.10;;;11.00;;
37407;SDS011;24866;50.248;8.252;2024-03-08T01:20:00;19.48;;;11.75;;
37407;SDS011;24866;50.248;8.252;2024-03-08T01:22:32;23.52;;;13.35;;
37407;SDS011;24866;50.248;8.252;2024-03-08T01:25:02;23.17;;;12.85;;
37407;SDS011;24866;50.248;8.252;2024-03-08T01:27:32;23.83;;;13.30;;
37407;SDS011;24866;50.248;8.252;2024-03-08T01:30:05;21.17;;;12.63;;
37407;SDS011;24866;50.248;8.252;2024-03-08T01:35:07;20.50;;;11.57;;
37407;SDS011;24866;50.248;8.252;2024-03-08T01:37:40;24.33;;;13.82;;
37407;SDS011;24866;50.248;8.252;2024-03-08T01:40:10;22.48;;;12.68;;
37407;SDS011;24866;50.248;8.252;2024-03-08T01:42:40;20.33;;;11.60;;
37407;SDS011;24866;50.248;8.252;2024-03-08T01:45:10;23.17;;;12.57;;
37407;SDS011;24866;50.248;8.252;2024-03-08T01:47:41;23.63;;;12.52;;
37407;SDS011;24866;50.248;8.252;2024-03-08T01:50:11;22.02;;;13.05;;
37407;SDS011;24866;50.248;8.252;2024-03-08T01:52:43;21.23;;;12.82;;
37407;SDS011;24866;50.248;8.252;2024-03-08T01:55:13;23.38;;;13.63;;
37407;SDS011;24866;50.248;8.252;2024-03-08T01:57:44;23.90;;;13.02;;
37407;SDS011;24866;50.248;8.252;2024-03-08T02:00:14;21.77;;;13.75;;
37407;SDS011;24866;50.248;8.252;2024-03-08T02:02:44;22.48;;;12.48;;
37407;SDS011;24866;50.248;8.252;2024-03-08T02:05:16;19.17;;;11.70;;
37407;SDS011;24866;50.248;8.252;2024-03-08T02:07:48;19.73;;;11.68;;
37407;SDS011;24866;50.248;8.252;2024-03-08T02:10:18;21.85;;;11.73;;
37407;SDS011;24866;50.248;8.252;2024-03-08T02:12:48;21.05;;;12.13;;
37407;SDS011;24866;50.248;8.252;2024-03-08T02:15:18;23.75;;;11.60;;
37407;SDS011;24866;50.248;8.252;2024-03-08T02:17:49;20.98;;;11.95;;
37407;SDS011;24866;50.248;8.252;2024-03-08T02:20:20;22.80;;;11.98;;
37407;SDS011;24866;50.248;8.252;2024-03-08T02:22:52;23.38;;;12.18;;
37407;SDS011;24866;50.248;8.252;2024-03-08T02:25:22;18.80;;;12.20;;
37407;SDS011;24866;50.248;8.252;2024-03-08T02:27:52;20.90;;;12.13;;
37407;SDS011;24866;50.248;8.252;2024-03-08T02:30:23;20.70;;;12.50;;
37407;SDS011;24866;50.248;8.252;2024-03-08T02:32:57;21.75;;;12.00;;
37407;SDS011;24866;50.248;8.252;2024-03-08T02:35:28;22.92;;;12.07;;
37407;SDS011;24866;50.248;8.252;2024-03-08T02:37:59;22.80;;;10.30;;
37407;SDS011;24866;50.248;8.252;2024-03-08T02:40:29;24.17;;;13.10;;
37407;SDS011;24866;50.248;8.252;2024-03-08T02:43:00;19.35;;;11.50;;
37407;SDS011;24866;50.248;8.252;2024-03-08T02:45:30;22.70;;;12.57;;
37407;SDS011;24866;50.248;8.252;2024-03-08T02:48:00;23.25;;;12.57;;
37407;SDS011;24866;50.248;8.252;2024-03-08T02:50:30;29.73;;;13.40;;
37407;SDS011;24866;50.248;8.252;2024-03-08T02:53:02;25.33;;;12.70;;
37407;SDS011;24866;50.248;8.252;2024-03-08T02:55:33;25.70;;;12.48;;
37407;SDS011;24866;50.248;8.252;2024-03-08T02:58:03;25.38;;;12.55;;
37407;SDS011;24866;50.248;8.252;2024-03-08T03:00:36;24.67;;;12.50;;
37407;SDS011;24866;50.248;8.252;2024-03-08T03:03:08;22.00;;;11.32;;
37407;SDS011;24866;50.248;8.252;2024-03-08T03:05:39;23.33;;;12.07;;
37407;SDS011;24866;50.248;8.252;2024-03-08T03:08:11;21.80;;;12.18;;
37407;SDS011;24866;50.248;8.252;2024-03-08T03:10:41;22.10;;;11.98;;
37407;SDS011;24866;50.248;8.252;2024-03-08T03:13:11;27.98;;;13.65;;
37407;SDS011;24866;50.248;8.252;2024-03-08T03:15:42;24.05;;;12.40;;
37407;SDS011;24866;50.248;8.252;2024-03-08T03:18:12;25.17;;;14.35;;
37407;SDS011;24866;50.248;8.252;2024-03-08T03:20:43;22.50;;;12.93;;
37407;SDS011;24866;50.248;8.252;2024-03-08T03:23:15;23.48;;;12.95;;
37407;SDS011;24866;50.248;8.252;2024-03-08T03:25:48;28.25;;;14.35;;
37407;SDS011;24866;50.248;8.252;2024-03-08T03:28:20;23.10;;;13.95;;
37407;SDS011;24866;50.248;8.252;2024-03-08T03:30:52;22.40;;;12.87;;
37407;SDS011;24866;50.248;8.252;2024-03-08T03:33:22;22.50;;;13.52;;
37407;SDS011;24866;50.248;8.252;2024-03-08T03:35:52;23.30;;;12.40;;
37407;SDS011;24866;50.248;8.252;2024-03-08T03:38:23;26.40;;;13.63;;
37407;SDS011;24866;50.248;8.252;2024-03-08T03:40:55;24.35;;;13.68;;
37407;SDS011;24866;50.248;8.252;2024-03-08T03:43:32;24.40;;;12.70;;
37407;SDS011;24866;50.248;8.252;2024-03-08T03:46:02;27.13;;;13.38;;
37407;SDS011;24866;50.248;8.252;2024-03-08T03:48:35;24.02;;;12.93;;
37407;SDS011;24866;50.248;8.252;2024-03-08T03:51:05;21.52;;;12.77;;
37407;SDS011;24866;50.248;8.252;2024-03-08T03:53:36;21.58;;;12.13;;
37407;SDS011;24866;50.248;8.252;2024-03-08T03:56:06;24.38;;;13.10;;
37407;SDS011;24866;50.248;8.252;2024-03-08T03:58:37;24.85;;;12.45;;
37407;SDS011;24866;50.248;8.252;2024-03-08T04:01:07;23.95;;;12.88;;
37407;SDS011;24866;50.248;8.252;2024-03-08T04:03:40;25.70;;;14.48;;
37407;SDS011;24866;50.248;8.252;2024-03-08T04:06:11;23.27;;;13.27;;
37407;SDS011;24866;50.248;8.252;2024-03-08T04:08:43;21.88;;;12.73;;
37407;SDS011;24866;50.248;8.252;2024-03-08T04:11:14;24.10;;;13.30;;
37407;SDS011;24866;50.248;8.252;2024-03-08T04:13:45;22.52;;;12.48;;
37407;SDS011;24866;50.248;8.252;2024-03-08T04:16:15;22.52;;;12.32;;
37407;SDS011;24866;50.248;8.252;2024-03-08T04:18:47;23.20;;;11.93;;
37407;SDS011;24866;50.248;8.252;2024-03-08T04:21:17;25.33;;;11.48;;
37407;SDS011;24866;50.248;8.252;2024-03-08T04:23:49;23.00;;;11.82;;
37407;SDS011;24866;50.248;8.252;2024-03-08T04:26:19;23.35;;;12.60;;
37407;SDS011;24866;50.248;8.252;2024-03-08T04:28:49;26.58;;;14.20;;
37407;SDS011;24866;50.248;8.252;2024-03-08T04:31:19;25.95;;;14.40;;
37407;SDS011;24866;50.248;8.252;2024-03-08T04:33:50;25.00;;;13.52;;
37407;SDS011;24866;50.248;8.252;2024-03-08T04:36:20;26.75;;;12.07;;
37407;SDS011;24866;50.248;8.252;2024-03-08T04:38:52;23.15;;;13.30;;
37407;SDS011;24866;50.248;8.252;2024-03-08T04:41:22;27.35;;;14.90;;
37407;SDS011;24866;50.248;8.252;2024-03-08T04:43:53;24.63;;;12.57;;
37407;SDS011;24866;50.248;8.252;2024-03-08T04:46:25;23.52;;;13.07;;
37407;SDS011;24866;50.248;8.252;2024-03-08T04:48:56;26.20;;;14.85;;
37407;SDS011;24866;50.248;8.252;2024-03-08T04:51:27;27.00;;;14.55;;
37407;SDS011;24866;50.248;8.252;2024-03-08T04:53:58;24.85;;;13.63;;
37407;SDS011;24866;50.248;8.252;2024-03-08T04:56:28;26.50;;;14.17;;
37407;SDS011;24866;50.248;8.252;2024-03-08T04:58:59;24.70;;;14.02;;
37407;SDS011;24866;50.248;8.252;2024-03-08T05:01:29;27.73;;;14.88;;
37407;SDS011;24866;50.248;8.252;2024-03-08T05:03:59;24.23;;;14.32;;
37407;SDS011;24866;50.248;8.252;2024-03-08T05:06:30;26.63;;;14.23;;
37407;SDS011;24866;50.248;8.252;2024-03-08T05:09:01;25.33;;;14.27;;
37407;SDS011;24866;50.248;8.252;2024-03-08T05:11:41;22.13;;;12.85;;
37407;SDS011;24866;50.248;8.252;2024-03-08T05:14:12;25.27;;;13.32;;
37407;SDS011;24866;50.248;8.252;2024-03-08T05:16:44;24.73;;;12.80;;
37407;SDS011;24866;50.248;8.252;2024-03-08T05:19:16;27.73;;;14.18;;
37407;SDS011;24866;50.248;8.252;2024-03-08T05:21:46;27.83;;;14.70;;
37407;SDS011;24866;50.248;8.252;2024-03-08T05:24:18;24.50;;;14.18;;
37407;SDS011;24866;50.248;8.252;2024-03-08T05:26:48;25.50;;;13.57;;
37407;SDS011;24866;50.248;8.252;2024-03-08T05:29:18;28.42;;;15.18;;
37407;SDS011;24866;50.248;8.252;2024-03-08T05:31:49;26.92;;;13.93;;
37407;SDS011;24866;50.248;8.252;2024-03-08T05:34:20;23.50;;;13.38;;
37407;SDS011;24866;50.248;8.252;2024-03-08T05:36:50;23.55;;;14.75;;
37407;SDS011;24866;50.248;8.252;2024-03-08T05:39:24;27.92;;;15.77;;
37407;SDS011;24866;50.248;8.252;2024-03-08T05:41:54;26.45;;;13.98;;
37407;SDS011;24866;50.248;8.252;2024-03-08T05:44:24;26.25;;;15.27;;
37407;SDS011;24866;50.248;8.252;2024-03-08T05:46:56;26.65;;;14.40;;
37407;SDS011;24866;50.248;8.252;2024-03-08T05:49:26;25.88;;;14.70;;
37407;SDS011;24866;50.248;8.252;2024-03-08T05:51:56;23.17;;;13.98;;
37407;SDS011;24866;50.248;8.252;2024-03-08T05:54:29;24.75;;;14.07;;
37407;SDS011;24866;50.248;8.252;2024-03-08T05:57:01;23.45;;;13.88;;
37407;SDS011;24866;50.248;8.252;2024-03-08T05:59:31;27.05;;;14.52;;
37407;SDS011;24866;50.248;8.252;2024-03-08T06:02:01;25.83;;;14.73;;
37407;SDS011;24866;50.248;8.252;2024-03-08T06:04:32;26.50;;;15.48;;
37407;SDS011;24866;50.248;8.252;2024-03-08T06:07:02;24.90;;;14.60;;
37407;SDS011;24866;50.248;8.252;2024-03-08T06:09:34;27.00;;;14.63;;
37407;SDS011;24866;50.248;8.252;2024-03-08T06:12:05;30.65;;;15.45;;
37407;SDS011;24866;50.248;8.252;2024-03-08T06:14:37;25.80;;;15.40;;
37407;SDS011;24866;50.248;8.252;2024-03-08T06:17:08;27.10;;;16.02;;
37407;SDS011;24866;50.248;8.252;2024-03-08T06:19:39;26.98;;;14.93;;
37407;SDS011;24866;50.248;8.252;2024-03-08T06:22:09;27.77;;;14.82;;
37407;SDS011;24866;50.248;8.252;2024-03-08T06:24:40;26.75;;;14.80;;
37407;SDS011;24866;50.248;8.252;2024-03-08T06:27:11;25.02;;;14.13;;
37407;SDS011;24866;50.248;8.252;2024-03-08T06:29:42;25.52;;;14.63;;
37407;SDS011;24866;50.248;8.252;2024-03-08T06:32:12;26.27;;;15.00;;
37407;SDS011;24866;50.248;8.252;2024-03-08T06:34:43;26.73;;;15.15;;
37407;SDS011;24866;50.248;8.252;2024-03-08T06:37:14;29.45;;;15.10;;
37407;SDS011;24866;50.248;8.252;2024-03-08T06:39:46;28.70;;;14.93;;
37407;SDS011;24866;50.248;8.252;2024-03-08T06:42:16;28.00;;;14.65;;
37407;SDS011;24866;50.248;8.252;2024-03-08T06:44:46;26.33;;;14.45;;
37407;SDS011;24866;50.248;8.252;2024-03-08T06:47:18;27.70;;;15.23;;
37407;SDS011;24866;50.248;8.252;2024-03-08T06:49:48;25.50;;;15.25;;
37407;SDS011;24866;50.248;8.252;2024-03-08T06:52:20;23.20;;;13.45;;
37407;SDS011;24866;50.248;8.252;2024-03-08T06:54:51;25.20;;;14.32;;
37407;SDS011;24866;50.248;8.252;2024-03-08T06:57:22;26.67;;;14.93;;
37407;SDS011;24866;50.248;8.252;2024-03-08T06:59:52;25.05;;;15.35;;
37407;SDS011;24866;50.248;8.252;2024-03-08T07:02:22;27.77;;;13.80;;
37407;SDS011;24866;50.248;8.252;2024-03-08T07:04:53;26.48;;;15.30;;
37407;SDS011;24866;50.248;8.252;2024-03-08T07:07:24;25.15;;;14.40;;
37407;SDS011;24866;50.248;8.252;2024-03-08T07:09:56;26.65;;;13.98;;
37407;SDS011;24866;50.248;8.252;2024-03-08T07:12:26;27.42;;;13.73;;
37407;SDS011;24866;50.248;8.252;2024-03-08T07:14:56;27.08;;;14.57;;
37407;SDS011;24866;50.248;8.252;2024-03-08T07:17:27;22.67;;;13.90;;
37407;SDS011;24866;50.248;8.252;2024-03-08T07:19:57;26.35;;;14.30;;
37407;SDS011;24866;50.248;8.252;2024-03-08T07:22:27;22.92;;;13.05;;
37407;SDS011;24866;50.248;8.252;2024-03-08T07:24:59;23.63;;;14.40;;
37407;SDS011;24866;50.248;8.252;2024-03-08T07:27:47;24.98;;;14.50;;
37407;SDS011;24866;50.248;8.252;2024-03-08T07:30:18;24.00;;;14.30;;
37407;SDS011;24866;50.248;8.252;2024-03-08T07:33:06;24.02;;;13.63;;
37407;SDS011;24866;50.248;8.252;2024-03-08T07:35:36;23.90;;;13.13;;
37407;SDS011;24866;50.248;8.252;2024-03-08T07:38:06;22.35;;;13.68;;
37407;SDS011;24866;50.248;8.252;2024-03-08T07:40:40;23.27;;;13.52;;
37407;SDS011;24866;50.248;8.252;2024-03-08T07:43:12;21.92;;;12.82;;
37407;SDS011;24866;50.248;8.252;2024-03-08T07:45:42;22.10;;;13.50;;
37407;SDS011;24866;50.248;8.252;2024-03-08T07:48:13;22.50;;;13.73;;
37407;SDS011;24866;50.248;8.252;2024-03-08T07:50:44;19.75;;;12.20;;
37407;SDS011;24866;50.248;8.252;2024-03-08T07:53:15;21.65;;;12.68;;
37407;SDS011;24866;50.248;8.252;2024-03-08T07:55:46;22.48;;;13.35;;
37407;SDS011;24866;50.248;8.252;2024-03-08T07:58:16;24.60;;;14.02;;
37407;SDS011;24866;50.248;8.252;2024-03-08T08:00:47;20.80;;;13.10;;
37407;SDS011;24866;50.248;8.252;2024-03-08T08:03:17;19.70;;;12.02;;
37407;SDS011;24866;50.248;8.252;2024-03-08T08:05:49;21.15;;;12.90;;
37407;SDS011;24866;50.248;8.252;2024-03-08T08:08:19;22.55;;;12.88;;
37407;SDS011;24866;50.248;8.252;2024-03-08T08:10:51;23.77;;;14.20;;
37407;SDS011;24866;50.248;8.252;2024-03-08T08:13:21;21.58;;;12.98;;
37407;SDS011;24866;50.248;8.252;2024-03-08T08:15:52;23.85;;;13.15;;
37407;SDS011;24866;50.248;8.252;2024-03-08T08:18:22;22.80;;;13.40;;
37407;SDS011;24866;50.248;8.252;2024-03-08T08:20:54;23.02;;;13.80;;
37407;SDS011;24866;50.248;8.252;2024-03-08T08:23:24;22.70;;;13.50;;
37407;SDS011;24866;50.248;8.252;2024-03-08T08:25:56;23.40;;;13.23;;
37407;SDS011;24866;50.248;8.252;2024-03-08T08:28:26;19.90;;;12.80;;
37407;SDS011;24866;50.248;8.252;2024-03-08T08:30:56;22.05;;;12.88;;
37407;SDS011;24866;50.248;8.252;2024-03-08T08:33:27;25.58;;;13.82;;
37407;SDS011;24866;50.248;8.252;2024-03-08T08:35:58;23.30;;;13.65;;
37407;SDS011;24866;50.248;8.252;2024-03-08T08:38:28;20.63;;;13.23;;
37407;SDS011;24866;50.248;8.252;2024-03-08T08:41:00;21.40;;;13.73;;
37407;SDS011;24866;50.248;8.252;2024-03-08T08:43:31;22.40;;;13.80;;
37407;SDS011;24866;50.248;8.252;2024-03-08T08:46:02;21.58;;;13.93;;
37407;SDS011;24866;50.248;8.252;2024-03-08T08:48:33;24.73;;;14.75;;
37407;SDS011;24866;50.248;8.252;2024-03-08T08:51:03;21.80;;;13.48;;
37407;SDS011;24866;50.248;8.252;2024-03-08T08:53:34;21.92;;;13.82;;
37407;SDS011;24866;50.248;8.252;2024-03-08T08:56:06;25.02;;;13.90;;
37407;SDS011;24866;50.248;8.252;2024-03-08T08:58:37;21.67;;;13.80;;
37407;SDS011;24866;50.248;8.252;2024-03-08T09:01:07;22.20;;;14.18;;
37407;SDS011;24866;50.248;8.252;2024-03-08T09:03:38;23.05;;;13.68;;
37407;SDS011;24866;50.248;8.252;2024-03-08T09:06:09;23.42;;;13.75;;
37407;SDS011;24866;50.248;8.252;2024-03-08T09:08:39;20.80;;;13.45;;
37407;SDS011;24866;50.248;8.252;2024-03-08T09:11:11;20.98;;;12.80;;
37407;SDS011;24866;50.248;8.252;2024-03-08T09:13:44;20.00;;;12.95;;
37407;SDS011;24866;50.248;8.252;2024-03-08T09:16:15;19.67;;;13.15;;
37407;SDS011;24866;50.248;8.252;2024-03-08T09:18:45;22.98;;;13.18;;
37407;SDS011;24866;50.248;8.252;2024-03-08T09:21:16;22.55;;;14.02;;
37407;SDS011;24866;50.248;8.252;2024-03-08T09:23:47;21.60;;;13.45;;
37407;SDS011;24866;50.248;8.252;2024-03-08T09:26:19;20.70;;;13.77;;
37407;SDS011;24866;50.248;8.252;2024-03-08T09:31:20;22.70;;;12.55;;
37407;SDS011;24866;50.248;8.252;2024-03-08T09:33:51;19.70;;;13.05;;
37407;SDS011;24866;50.248;8.252;2024-03-08T09:36:21;18.95;;;12.80;;
37407;SDS011;24866;50.248;8.252;2024-03-08T09:38:51;22.77;;;13.00;;
37407;SDS011;24866;50.248;8.252;2024-03-08T09:41:23;19.13;;;12.38;;
37407;SDS011;24866;50.248;8.252;2024-03-08T09:43:54;21.67;;;12.80;;
37407;SDS011;24866;50.248;8.252;2024-03-08T09:46:27;18.55;;;12.10;;
37407;SDS011;24866;50.248;8.252;2024-03-08T09:51:33;19.10;;;11.55;;
37407;SDS011;24866;50.248;8.252;2024-03-08T09:54:04;17.88;;;11.65;;
37407;SDS011;24866;50.248;8.252;2024-03-08T09:56:36;18.25;;;12.82;;
37407;SDS011;24866;50.248;8.252;2024-03-08T09:59:09;20.08;;;12.57;;
37407;SDS011;24866;50.248;8.252;2024-03-08T10:02:12;20.25;;;12.32;;
37407;SDS011;24866;50.248;8.252;2024-03-08T10:04:44;18.63;;;12.80;;
37407;SDS011;24866;50.248;8.252;2024-03-08T10:07:16;22.05;;;12.98;;
37407;SDS011;24866;50.248;8.252;2024-03-08T10:09:46;20.17;;;12.25;;
37407;SDS011;24866;50.248;8.252;2024-03-08T10:12:20;22.33;;;13.40;;
37407;SDS011;24866;50.248;8.252;2024-03-08T10:14:50;21.27;;;12.68;;
37407;SDS011;24866;50.248;8.252;2024-03-08T10:17:21;21.50;;;12.98;;
37407;SDS011;24866;50.248;8.252;2024-03-08T10:19:52;17.95;;;11.48;;
37407;SDS011;24866;50.248;8.252;2024-03-08T10:22:23;18.17;;;12.50;;
37407;SDS011;24866;50.248;8.252;2024-03-08T10:24:57;17.27;;;12.05;;
37407;SDS011;24866;50.248;8.252;2024-03-08T10:27:30;17.85;;;11.85;;
37407;SDS011;24866;50.248;8.252;2024-03-08T10:30:00;20.02;;;13.77;;
37407;SDS011;24866;50.248;8.252;2024-03-08T10:32:31;16.55;;;10.90;;
37407;SDS011;24866;50.248;8.252;2024-03-08T10:35:01;17.45;;;12.25;;
37407;SDS011;24866;50.248;8.252;2024-03-08T10:37:32;18.35;;;12.30;;
37407;SDS011;24866;50.248;8.252;2024-03-08T10:40:03;15.82;;;11.27;;
37407;SDS011;24866;50.248;8.252;2024-03-08T10:42:40;17.83;;;12.55;;
37407;SDS011;24866;50.248;8.252;2024-03-08T10:45:13;20.08;;;12.50;;
37407;SDS011;24866;50.248;8.252;2024-03-08T10:47:45;19.98;;;12.60;;
37407;SDS011;24866;50.248;8.252;2024-03-08T10:50:19;17.95;;;11.55;;
37407;SDS011;24866;50.248;8.252;2024-03-08T10:52:50;17.05;;;11.90;;
37407;SDS011;24866;50.248;8.252;2024-03-08T10:55:20;18.90;;;12.32;;
37407;SDS011;24866;50.248;8.252;2024-03-08T10:57:52;17.42;;;11.75;;
37407;SDS011;24866;50.248;8.252;2024-03-08T11:00:23;17.70;;;11.67;;
37407;SDS011;24866;50.248;8.252;2024-03-08T11:02:55;18.00;;;12.48;;
37407;SDS011;24866;50.248;8.252;2024-03-08T11:05:32;18.38;;;12.18;;
37407;SDS011;24866;50.248;8.252;2024-03-08T11:08:15;18.50;;;12.20;;
37407;SDS011;24866;50.248;8.252;2024-03-08T11:10:48;17.67;;;12.05;;
37407;SDS011;24866;50.248;8.252;2024-03-08T11:13:36;16.27;;;11.10;;
37407;SDS011;24866;50.248;8.252;2024-03-08T11:16:09;20.30;;;12.43;;
37407;SDS011;24866;50.248;8.252;2024-03-08T11:18:39;18.98;;;12.63;;
37407;SDS011;24866;50.248;8.252;2024-03-08T11:21:10;18.48;;;12.18;;
37407;SDS011;24866;50.248;8.252;2024-03-08T11:23:41;16.45;;;11.25;;
37407;SDS011;24866;50.248;8.252;2024-03-08T11:26:18;17.08;;;11.48;;
37407;SDS011;24866;50.248;8.252;2024-03-08T11:28:50;17.42;;;12.35;;
37407;SDS011;24866;50.248;8.252;2024-03-08T11:31:24;16.50;;;11.48;;
37407;SDS011;24866;50.248;8.252;2024-03-08T11:33:56;17.17;;;11.68;;
37407;SDS011;24866;50.248;8.252;2024-03-08T11:36:27;17.00;;;11.32;;
37407;SDS011;24866;50.248;8.252;2024-03-08T11:39:00;15.00;;;10.70;;
37407;SDS011;24866;50.248;8.252;2024-03-08T11:41:37;15.90;;;11.32;;
37407;SDS011;24866;50.248;8.252;2024-03-08T11:44:11;16.27;;;11.38;;
37407;SDS011;24866;50.248;8.252;2024-03-08T11:46:44;14.73;;;11.05;;
37407;SDS011;24866;50.248;8.252;2024-03-08T11:49:16;17.50;;;11.20;;
37407;SDS011;24866;50.248;8.252;2024-03-08T11:51:46;16.15;;;11.00;;
37407;SDS011;24866;50.248;8.252;2024-03-08T11:54:16;16.85;;;10.82;;
37407;SDS011;24866;50.248;8.252;2024-03-08T11:56:47;13.48;;;9.68;;
37407;SDS011;24866;50.248;8.252;2024-03-08T11:59:19;15.27;;;10.95;;
37407;SDS011;24866;50.248;8.252;2024-03-08T12:02:02;14.98;;;10.63;;
37407;SDS011;24866;50.248;8.252;2024-03-08T12:04:33;16.25;;;10.35;;
37407;SDS011;24866;50.248;8.252;2024-03-08T12:07:04;15.55;;;10.73;;
37407;SDS011;24866;50.248;8.252;2024-03-08T12:09:38;15.57;;;10.38;;
37407;SDS011;24866;50.248;8.252;2024-03-08T12:12:08;13.18;;;9.73;;
37407;SDS011;24866;50.248;8.252;2024-03-08T12:14:43;14.90;;;10.68;;
37407;SDS011;24866;50.248;8.252;2024-03-08T12:17:14;17.00;;;11.05;;
37407;SDS011;24866;50.248;8.252;2024-03-08T12:19:46;15.07;;;9.93;;
37407;SDS011;24866;50.248;8.252;2024-03-08T12:22:16;15.32;;;10.25;;
37407;SDS011;24866;50.248;8.252;2024-03-08T12:25:02;14.93;;;10.88;;
37407;SDS011;24866;50.248;8.252;2024-03-08T12:27:33;15.90;;;10.48;;
37407;SDS011;24866;50.248;8.252;2024-03-08T12:30:16;15.65;;;10.27;;
37407;SDS011;24866;50.248;8.252;2024-03-08T12:32:48;16.38;;;11.50;;
37407;SDS011;24866;50.248;8.252;2024-03-08T12:35:20;15.57;;;10.32;;
37407;SDS011;24866;50.248;8.252;2024-03-08T12:37:51;18.00;;;10.77;;
37407;SDS011;24866;50.248;8.252;2024-03-08T12:40:26;15.23;;;10.40;;
37407;SDS011;24866;50.248;8.252;2024-03-08T12:42:57;17.48;;;11.85;;
37407;SDS011;24866;50.248;8.252;2024-03-08T12:45:28;14.90;;;10.10;;
37407;SDS011;24866;50.248;8.252;2024-03-08T12:50:31;15.90;;;11.43;;
37407;SDS011;24866;50.248;8.252;2024-03-08T12:53:02;14.10;;;10.13;;
37407;SDS011;24866;50.248;8.252;2024-03-08T12:55:33;13.60;;;10.45;;
37407;SDS011;24866;50.248;8.252;2024-03-08T12:58:03;15.45;;;10.18;;
37407;SDS011;24866;50.248;8.252;2024-03-08T13:00:36;14.55;;;9.90;;
37407;SDS011;24866;50.248;8.252;2024-03-08T13:03:11;16.10;;;11.13;;
37407;SDS011;24866;50.248;8.252;2024-03-08T13:05:41;19.13;;;10.68;;
37407;SDS011;24866;50.248;8.252;2024-03-08T13:08:11;15.25;;;10.23;;
37407;SDS011;24866;50.248;8.252;2024-03-08T13:10:42;16.10;;;11.00;;
37407;SDS011;24866;50.248;8.252;2024-03-08T13:13:13;16.52;;;10.88;;
37407;SDS011;24866;50.248;8.252;2024-03-08T13:15:46;14.40;;;10.48;;
37407;SDS011;24866;50.248;8.252;2024-03-08T13:18:17;16.38;;;10.65;;
37407;SDS011;24866;50.248;8.252;2024-03-08T13:20:48;16.33;;;10.35;;
37407;SDS011;24866;50.248;8.252;2024-03-08T13:23:20;15.98;;;11.60;;
37407;SDS011;24866;50.248;8.252;2024-03-08T13:25:50;16.75;;;11.32;;
37407;SDS011;24866;50.248;8.252;2024-03-08T13:28:22;13.65;;;10.15;;
37407;SDS011;24866;50.248;8.252;2024-03-08T13:30:59;16.10;;;10.63;;
37407;SDS011;24866;50.248;8.252;2024-03-08T13:33:29;16.17;;;11.02;;
37407;SDS011;24866;50.248;8.252;2024-03-08T13:36:00;16.45;;;11.40;;
37407;SDS011;24866;50.248;8.252;2024-03-08T13:38:34;14.70;;;10.52;;
37407;SDS011;24866;50.248;8.252;2024-03-08T13:41:04;19.88;;;11.57;;
37407;SDS011;24866;50.248;8.252;2024-03-08T13:43:35;16.15;;;11.35;;
37407;SDS011;24866;50.248;8.252;2024-03-08T13:46:07;16.27;;;10.60;;
37407;SDS011;24866;50.248;8.252;2024-03-08T13:48:38;18.00;;;11.07;;
37407;SDS011;24866;50.248;8.252;2024-03-08T13:51:09;16.30;;;11.48;;
37407;SDS011;24866;50.248;8.252;2024-03-08T13:53:42;16.30;;;11.82;;
37407;SDS011;24866;50.248;8.252;2024-03-08T13:56:13;16.17;;;11.43;;
37407;SDS011;24866;50.248;8.252;2024-03-08T13:58:44;20.10;;;12.80;;
37407;SDS011;24866;50.248;8.252;2024-03-08T14:01:16;17.25;;;12.60;;
37407;SDS011;24866;50.248;8.252;2024-03-08T14:03:46;16.17;;;11.98;;
37407;SDS011;24866;50.248;8.252;2024-03-08T14:06:17;16.98;;;12.20;;
37407;SDS011;24866;50.248;8.252;2024-03-08T14:08:47;17.85;;;11.55;;
37407;SDS011;24866;50.248;8.252;2024-03-08T14:11:17;17.63;;;11.57;;
37407;SDS011;24866;50.248;8.252;2024-03-08T14:13:48;23.80;;;13.50;;
37407;SDS011;24866;50.248;8.252;2024-03-08T14:16:20;17.05;;;12.30;;
37407;SDS011;24866;50.248;8.252;2024-03-08T14:18:50;18.33;;;14.23;;
37407;SDS011;24866;50.248;8.252;2024-03-08T14:21:21;16.95;;;12.23;;
37407;SDS011;24866;50.248;8.252;2024-03-08T14:23:51;17.55;;;12.90;;
37407;SDS011;24866;50.248;8.252;2024-03-08T14:26:21;18.15;;;12.43;;
37407;SDS011;24866;50.248;8.252;2024-03-08T14:28:51;20.30;;;13.43;;
37407;SDS011;24866;50.248;8.252;2024-03-08T14:31:24;18.17;;;13.05;;
37407;SDS011;24866;50.248;8.252;2024-03-08T14:33:56;18.70;;;13.25;;
37407;SDS011;24866;50.248;8.252;2024-03-08T14:36:27;20.90;;;12.88;;
37407;SDS011;24866;50.248;8.252;2024-03-08T14:38:57;19.02;;;13.15;;
37407;SDS011;24866;50.248;8.252;2024-03-08T14:41:27;18.42;;;11.85;;
37407;SDS011;24866;50.248;8.252;2024-03-08T14:43:58;20.05;;;13.27;;
37407;SDS011;24866;50.248;8.252;2024-03-08T14:46:29;22.65;;;14.52;;
37407;SDS011;24866;50.248;8.252;2024-03-08T14:49:00;19.35;;;13.05;;
37407;SDS011;24866;50.248;8.252;2024-03-08T14:51:30;18.95;;;13.93;;
37407;SDS011;24866;50.248;8.252;2024-03-08T14:54:01;20.23;;;13.95;;
37407;SDS011;24866;50.248;8.252;2024-03-08T14:56:34;22.05;;;14.50;;